sensor_id;sensor_type;location;lat;lon;timestamp;pressure;altitude;pressure_sealevel;temperature;humidity
57248;BME280;55809;46.618;10.764;2023-08-21T00:01:19;93735.22;;;21.64;65.62
57248;BME280;55809;46.618;10.764;2023-08-21T00:03:46;93735.66;;;21.63;65.32
57248;BME280;55809;46.618;10.764;2023-08-21T00:06:12;93734.91;;;21.62;65.43
57248;BME280;55809;46.618;10.764;2023-08-21T00:08:41;93739.00;;;21.58;65.72
57248;BME280;55809;46.618;10.764;2023-08-21T00:11:09;93734.22;;;21.49;66.19
57248;BME280;55809;46.618;10.764;2023-08-21T00:13:45;93736.78;;;21.43;67.30
57248;BME280;55809;46.618;10.764;2023-08-21T00:16:14;93734.59;;;21.38;67.33
57248;BME280;55809;46.618;10.764;2023-08-21T00:18:46;93732.31;;;21.37;67.22
57248;BME280;55809;46.618;10.764;2023-08-21T00:21:14;93735.50;;;21.35;66.97
57248;BME280;55809;46.618;10.764;2023-08-21T00:23:45;93733.94;;;21.34;66.89
57248;BME280;55809;46.618;10.764;2023-08-21T00:26:13;93728.91;;;21.33;67.80
57248;BME280;55809;46.618;10.764;2023-08-21T00:28:41;93736.06;;;21.30;68.04
57248;BME280;55809;46.618;10.764;2023-08-21T00:31:09;93726.84;;;21.24;67.90
57248;BME280;55809;46.618;10.764;2023-08-21T00:33:37;93729.34;;;21.31;67.37
57248;BME280;55809;46.618;10.764;2023-08-21T00:36:08;93727.13;;;21.39;66.78
57248;BME280;55809;46.618;10.764;2023-08-21T00:38:37;93737.34;;;21.38;66.43
57248;BME280;55809;46.618;10.764;2023-08-21T00:41:04;93735.16;;;21.33;66.20
57248;BME280;55809;46.618;10.764;2023-08-21T00:43:32;93732.97;;;21.28;66.06
57248;BME280;55809;46.618;10.764;2023-08-21T00:46:00;93738.16;;;21.26;65.81
57248;BME280;55809;46.618;10.764;2023-08-21T00:48:29;93732.81;;;21.22;65.79
57248;BME280;55809;46.618;10.764;2023-08-21T00:50:57;93732.13;;;21.18;65.70
57248;BME280;55809;46.618;10.764;2023-08-21T00:53:27;93735.34;;;21.17;65.73
57248;BME280;55809;46.618;10.764;2023-08-21T00:55:55;93737.34;;;21.16;65.89
57248;BME280;55809;46.618;10.764;2023-08-21T00:58:23;93728.63;;;21.18;66.18
57248;BME280;55809;46.618;10.764;2023-08-21T01:00:50;93731.72;;;21.20;66.27
57248;BME280;55809;46.618;10.764;2023-08-21T01:03:19;93731.38;;;21.18;66.20
57248;BME280;55809;46.618;10.764;2023-08-21T01:05:49;93733.59;;;21.32;65.81
57248;BME280;55809;46.618;10.764;2023-08-21T01:08:19;93729.41;;;21.18;66.15
57248;BME280;55809;46.618;10.764;2023-08-21T01:10:52;93732.13;;;21.18;65.95
57248;BME280;55809;46.618;10.764;2023-08-21T01:13:26;93741.13;;;21.19;66.55
57248;BME280;55809;46.618;10.764;2023-08-21T01:15:56;93735.00;;;21.15;66.99
57248;BME280;55809;46.618;10.764;2023-08-21T01:18:25;93733.28;;;21.08;67.51
57248;BME280;55809;46.618;10.764;2023-08-21T01:20:54;93736.41;;;20.97;67.79
57248;BME280;55809;46.618;10.764;2023-08-21T01:23:34;93748.28;;;20.94;67.53
57248;BME280;55809;46.618;10.764;2023-08-21T01:26:00;93753.31;;;20.96;67.03
57248;BME280;55809;46.618;10.764;2023-08-21T01:28:31;93749.81;;;20.95;66.95
57248;BME280;55809;46.618;10.764;2023-08-21T01:31:00;93754.09;;;20.96;66.44
57248;BME280;55809;46.618;10.764;2023-08-21T01:33:32;93747.53;;;20.94;66.98
57248;BME280;55809;46.618;10.764;2023-08-21T01:36:01;93748.84;;;20.89;67.48
57248;BME280;55809;46.618;10.764;2023-08-21T01:38:34;93748.19;;;20.85;67.62
57248;BME280;55809;46.618;10.764;2023-08-21T01:41:02;93742.06;;;20.81;67.76
57248;BME280;55809;46.618;10.764;2023-08-21T01:43:29;93754.28;;;20.80;67.62
57248;BME280;55809;46.618;10.764;2023-08-21T01:45:57;93746.81;;;20.80;67.70
57248;BME280;55809;46.618;10.764;2023-08-21T01:48:28;93752.84;;;20.75;68.06
57248;BME280;55809;46.618;10.764;2023-08-21T01:50:54;93748.81;;;20.67;68.39
57248;BME280;55809;46.618;10.764;2023-08-21T01:53:22;93744.97;;;20.65;67.75
57248;BME280;55809;46.618;10.764;2023-08-21T01:55:53;93741.00;;;20.66;67.48
57248;BME280;55809;46.618;10.764;2023-08-21T01:58:21;93741.34;;;20.68;67.31
57248;BME280;55809;46.618;10.764;2023-08-21T02:00:49;93736.97;;;20.70;67.34
57248;BME280;55809;46.618;10.764;2023-08-21T02:03:16;93748.56;;;20.74;67.41
57248;BME280;55809;46.618;10.764;2023-08-21T02:05:44;93741.56;;;20.73;67.35
57248;BME280;55809;46.618;10.764;2023-08-21T02:08:13;93743.97;;;20.71;67.88
57248;BME280;55809;46.618;10.764;2023-08-21T02:10:50;93749.91;;;20.70;68.08
57248;BME280;55809;46.618;10.764;2023-08-21T02:13:32;93755.41;;;20.70;68.02
57248;BME280;55809;46.618;10.764;2023-08-21T02:16:00;93753.09;;;20.68;67.75
57248;BME280;55809;46.618;10.764;2023-08-21T02:18:29;93753.09;;;20.68;67.52
57248;BME280;55809;46.618;10.764;2023-08-21T02:20:57;93757.81;;;20.68;67.07
57248;BME280;55809;46.618;10.764;2023-08-21T02:23:25;93759.78;;;20.67;67.13
57248;BME280;55809;46.618;10.764;2023-08-21T02:25:53;93758.91;;;20.70;66.56
57248;BME280;55809;46.618;10.764;2023-08-21T02:28:23;93748.91;;;20.76;65.61
57248;BME280;55809;46.618;10.764;2023-08-21T02:30:53;93758.31;;;20.75;65.52
57248;BME280;55809;46.618;10.764;2023-08-21T02:33:19;93748.13;;;20.76;65.71
57248;BME280;55809;46.618;10.764;2023-08-21T02:35:50;93746.91;;;20.77;65.50
57248;BME280;55809;46.618;10.764;2023-08-21T02:38:19;93751.19;;;20.78;65.24
57248;BME280;55809;46.618;10.764;2023-08-21T02:40:46;93747.34;;;20.75;65.38
57248;BME280;55809;46.618;10.764;2023-08-21T02:43:15;93747.47;;;20.72;65.38
57248;BME280;55809;46.618;10.764;2023-08-21T02:45:45;93754.47;;;20.73;65.36
57248;BME280;55809;46.618;10.764;2023-08-21T02:48:12;93758.91;;;20.70;65.71
57248;BME280;55809;46.618;10.764;2023-08-21T02:50:39;93750.78;;;20.67;65.77
57248;BME280;55809;46.618;10.764;2023-08-21T02:53:08;93756.50;;;20.59;65.81
57248;BME280;55809;46.618;10.764;2023-08-21T02:55:35;93742.81;;;20.47;66.09
57248;BME280;55809;46.618;10.764;2023-08-21T02:58:03;93756.81;;;20.49;66.68
57248;BME280;55809;46.618;10.764;2023-08-21T03:00:33;93744.00;;;20.46;66.63
57248;BME280;55809;46.618;10.764;2023-08-21T03:03:06;93741.69;;;20.44;66.79
57248;BME280;55809;46.618;10.764;2023-08-21T03:05:34;93752.34;;;20.42;67.11
57248;BME280;55809;46.618;10.764;2023-08-21T03:08:02;93750.47;;;20.39;66.86
57248;BME280;55809;46.618;10.764;2023-08-21T03:10:31;93751.69;;;20.38;67.23
57248;BME280;55809;46.618;10.764;2023-08-21T03:13:00;93747.41;;;20.37;67.64
57248;BME280;55809;46.618;10.764;2023-08-21T03:15:28;93747.72;;;20.39;67.47
57248;BME280;55809;46.618;10.764;2023-08-21T03:17:56;93744.22;;;20.38;67.38
57248;BME280;55809;46.618;10.764;2023-08-21T03:20:24;93752.03;;;20.40;66.66
57248;BME280;55809;46.618;10.764;2023-08-21T03:22:55;93744.88;;;20.43;66.53
57248;BME280;55809;46.618;10.764;2023-08-21T03:25:23;93749.59;;;20.42;66.28
57248;BME280;55809;46.618;10.764;2023-08-21T03:27:51;93751.56;;;20.42;66.61
57248;BME280;55809;46.618;10.764;2023-08-21T03:30:19;93751.34;;;20.36;66.75
57248;BME280;55809;46.618;10.764;2023-08-21T03:32:50;93752.13;;;20.36;66.61
57248;BME280;55809;46.618;10.764;2023-08-21T03:35:21;93752.91;;;20.37;66.59
57248;BME280;55809;46.618;10.764;2023-08-21T03:37:50;93747.63;;;20.30;67.32
57248;BME280;55809;46.618;10.764;2023-08-21T03:40:17;93747.31;;;20.28;67.17
57248;BME280;55809;46.618;10.764;2023-08-21T03:42:45;93755.31;;;20.22;67.41
57248;BME280;55809;46.618;10.764;2023-08-21T03:45:17;93747.44;;;20.24;67.27
57248;BME280;55809;46.618;10.764;2023-08-21T03:47:45;93751.38;;;20.23;66.92
57248;BME280;55809;46.618;10.764;2023-08-21T03:50:13;93748.50;;;20.27;66.42
57248;BME280;55809;46.618;10.764;2023-08-21T03:52:41;93747.63;;;20.30;66.13
57248;BME280;55809;46.618;10.764;2023-08-21T03:55:12;93759.94;;;20.25;66.29
57248;BME280;55809;46.618;10.764;2023-08-21T03:57:40;93756.66;;;20.18;66.23
57248;BME280;55809;46.618;10.764;2023-08-21T04:00:08;93757.19;;;20.12;67.07
57248;BME280;55809;46.618;10.764;2023-08-21T04:02:38;93764.19;;;20.13;67.14
57248;BME280;55809;46.618;10.764;2023-08-21T04:05:06;93762.34;;;20.10;66.96
57248;BME280;55809;46.618;10.764;2023-08-21T04:07:34;93767.84;;;20.10;67.55
57248;BME280;55809;46.618;10.764;2023-08-21T04:10:02;93763.53;;;20.09;67.61
57248;BME280;55809;46.618;10.764;2023-08-21T04:12:32;93760.50;;;20.07;67.41
57248;BME280;55809;46.618;10.764;2023-08-21T04:15:00;93766.06;;;20.04;67.68
57248;BME280;55809;46.618;10.764;2023-08-21T04:17:28;93765.28;;;20.03;67.41
57248;BME280;55809;46.618;10.764;2023-08-21T04:19:56;93770.00;;;20.03;67.61
57248;BME280;55809;46.618;10.764;2023-08-21T04:22:23;93752.47;;;20.00;67.52
57248;BME280;55809;46.618;10.764;2023-08-21T04:24:51;93760.03;;;19.96;67.33
57248;BME280;55809;46.618;10.764;2023-08-21T04:27:20;93760.50;;;19.95;67.44
57248;BME280;55809;46.618;10.764;2023-08-21T04:30:02;93759.63;;;19.98;67.54
57248;BME280;55809;46.618;10.764;2023-08-21T04:32:31;93761.25;;;19.95;67.71
57248;BME280;55809;46.618;10.764;2023-08-21T04:34:59;93768.38;;;19.92;67.62
57248;BME280;55809;46.618;10.764;2023-08-21T04:37:27;93762.47;;;19.94;67.62
57248;BME280;55809;46.618;10.764;2023-08-21T04:39:54;93767.38;;;19.99;67.97
57248;BME280;55809;46.618;10.764;2023-08-21T04:42:23;93766.50;;;20.02;67.90
57248;BME280;55809;46.618;10.764;2023-08-21T04:44:57;93763.78;;;20.02;67.81
57248;BME280;55809;46.618;10.764;2023-08-21T04:47:26;93763.00;;;20.02;68.00
57248;BME280;55809;46.618;10.764;2023-08-21T04:49:55;93766.16;;;20.00;68.11
57248;BME280;55809;46.618;10.764;2023-08-21T04:52:23;93765.09;;;19.98;68.22
57248;BME280;55809;46.618;10.764;2023-08-21T04:54:52;93769.03;;;19.97;68.43
57248;BME280;55809;46.618;10.764;2023-08-21T04:57:23;93771.09;;;19.92;68.96
57248;BME280;55809;46.618;10.764;2023-08-21T04:59:49;93771.88;;;19.93;69.13
57248;BME280;55809;46.618;10.764;2023-08-21T05:02:22;93771.75;;;19.97;69.01
57248;BME280;55809;46.618;10.764;2023-08-21T05:04:50;93770.00;;;20.03;68.82
57248;BME280;55809;46.618;10.764;2023-08-21T05:07:18;93766.75;;;20.08;68.93
57248;BME280;55809;46.618;10.764;2023-08-21T05:09:46;93773.19;;;20.27;67.72
57248;BME280;55809;46.618;10.764;2023-08-21T05:12:14;93773.09;;;20.30;67.70
57248;BME280;55809;46.618;10.764;2023-08-21T05:14:42;93775.72;;;20.34;67.34
57248;BME280;55809;46.618;10.764;2023-08-21T05:17:09;93776.03;;;20.36;67.34
57248;BME280;55809;46.618;10.764;2023-08-21T05:19:40;93773.50;;;20.42;67.42
57248;BME280;55809;46.618;10.764;2023-08-21T05:22:07;93777.34;;;20.44;67.45
57248;BME280;55809;46.618;10.764;2023-08-21T05:24:35;93769.31;;;20.50;67.32
57248;BME280;55809;46.618;10.764;2023-08-21T05:27:03;93773.41;;;20.58;66.95
57248;BME280;55809;46.618;10.764;2023-08-21T05:29:29;93775.78;;;20.69;66.62
57248;BME280;55809;46.618;10.764;2023-08-21T05:32:01;93773.25;;;20.74;66.62
57248;BME280;55809;46.618;10.764;2023-08-21T05:34:29;93774.25;;;20.80;66.20
57248;BME280;55809;46.618;10.764;2023-08-21T05:37:01;93769.25;;;20.88;66.21
57248;BME280;55809;46.618;10.764;2023-08-21T05:39:29;93777.47;;;21.01;65.77
57248;BME280;55809;46.618;10.764;2023-08-21T05:41:57;93774.34;;;21.12;65.36
57248;BME280;55809;46.618;10.764;2023-08-21T05:44:25;93769.69;;;21.21;64.09
57248;BME280;55809;46.618;10.764;2023-08-21T05:46:54;93779.75;;;21.37;63.81
57248;BME280;55809;46.618;10.764;2023-08-21T05:49:22;93776.50;;;21.51;63.33
57248;BME280;55809;46.618;10.764;2023-08-21T05:51:49;93776.34;;;21.77;62.54
57248;BME280;55809;46.618;10.764;2023-08-21T05:54:19;93775.81;;;21.91;61.93
57248;BME280;55809;46.618;10.764;2023-08-21T05:56:45;93774.06;;;22.07;61.43
57248;BME280;55809;46.618;10.764;2023-08-21T05:59:13;93774.31;;;22.31;60.34
57248;BME280;55809;46.618;10.764;2023-08-21T06:01:52;93771.81;;;22.55;59.86
57248;BME280;55809;46.618;10.764;2023-08-21T06:04:20;93772.47;;;22.77;59.00
57248;BME280;55809;46.618;10.764;2023-08-21T06:06:47;93768.56;;;23.15;58.31
57248;BME280;55809;46.618;10.764;2023-08-21T06:09:15;93769.59;;;23.45;57.32
57248;BME280;55809;46.618;10.764;2023-08-21T06:11:49;93775.28;;;23.69;56.84
57248;BME280;55809;46.618;10.764;2023-08-21T06:14:17;93780.91;;;23.93;56.28
57248;BME280;55809;46.618;10.764;2023-08-21T06:16:43;93778.75;;;24.30;55.01
57248;BME280;55809;46.618;10.764;2023-08-21T06:19:10;93778.38;;;24.56;53.59
57248;BME280;55809;46.618;10.764;2023-08-21T06:21:38;93771.47;;;24.85;53.09
57248;BME280;55809;46.618;10.764;2023-08-21T06:24:05;93769.28;;;25.13;52.46
57248;BME280;55809;46.618;10.764;2023-08-21T06:26:32;93777.38;;;25.40;51.87
57248;BME280;55809;46.618;10.764;2023-08-21T06:29:02;93774.94;;;25.57;51.56
57248;BME280;55809;46.618;10.764;2023-08-21T06:31:30;93774.75;;;25.76;50.82
57248;BME280;55809;46.618;10.764;2023-08-21T06:33:58;93770.38;;;25.99;50.77
57248;BME280;55809;46.618;10.764;2023-08-21T06:36:26;93774.22;;;26.16;50.00
57248;BME280;55809;46.618;10.764;2023-08-21T06:38:55;93770.53;;;26.39;50.00
57248;BME280;55809;46.618;10.764;2023-08-21T06:41:24;93769.66;;;26.63;48.96
57248;BME280;55809;46.618;10.764;2023-08-21T06:43:52;93763.59;;;26.79;48.61
57248;BME280;55809;46.618;10.764;2023-08-21T06:46:22;93766.41;;;26.85;48.64
57248;BME280;55809;46.618;10.764;2023-08-21T06:48:50;93767.41;;;27.02;48.06
57248;BME280;55809;46.618;10.764;2023-08-21T06:51:20;93763.38;;;27.03;48.34
57248;BME280;55809;46.618;10.764;2023-08-21T06:53:47;93765.41;;;27.23;48.38
57248;BME280;55809;46.618;10.764;2023-08-21T06:56:14;93770.31;;;27.34;47.64
57248;BME280;55809;46.618;10.764;2023-08-21T06:58:41;93769.00;;;27.50;47.59
57248;BME280;55809;46.618;10.764;2023-08-21T07:01:08;93766.13;;;27.65;47.24
57248;BME280;55809;46.618;10.764;2023-08-21T07:03:39;93772.13;;;27.83;45.88
57248;BME280;55809;46.618;10.764;2023-08-21T07:06:06;93764.81;;;28.12;45.52
57248;BME280;55809;46.618;10.764;2023-08-21T07:08:32;93769.31;;;28.36;45.14
57248;BME280;55809;46.618;10.764;2023-08-21T07:11:01;93772.00;;;28.56;45.00
57248;BME280;55809;46.618;10.764;2023-08-21T07:13:29;93768.56;;;28.72;43.90
57248;BME280;55809;46.618;10.764;2023-08-21T07:15:55;93768.66;;;28.84;43.99
57248;BME280;55809;46.618;10.764;2023-08-21T07:18:22;93770.19;;;28.90;44.15
57248;BME280;55809;46.618;10.764;2023-08-21T07:20:52;93770.78;;;29.00;44.56
57248;BME280;55809;46.618;10.764;2023-08-21T07:23:19;93765.56;;;29.19;44.12
57248;BME280;55809;46.618;10.764;2023-08-21T07:25:46;93762.84;;;29.36;43.99
57248;BME280;55809;46.618;10.764;2023-08-21T07:28:13;93766.94;;;29.57;42.54
57248;BME280;55809;46.618;10.764;2023-08-21T07:30:40;93776.38;;;29.71;41.71
57248;BME280;55809;46.618;10.764;2023-08-21T07:33:07;93761.47;;;29.85;42.37
57248;BME280;55809;46.618;10.764;2023-08-21T07:35:33;93759.22;;;29.89;40.94
57248;BME280;55809;46.618;10.764;2023-08-21T07:38:02;93763.75;;;29.92;41.86
57248;BME280;55809;46.618;10.764;2023-08-21T07:40:29;93763.00;;;29.92;42.55
57248;BME280;55809;46.618;10.764;2023-08-21T07:42:56;93766.31;;;29.96;43.06
57248;BME280;55809;46.618;10.764;2023-08-21T07:45:23;93760.78;;;30.19;42.76
57248;BME280;55809;46.618;10.764;2023-08-21T07:47:50;93751.91;;;30.14;41.85
57248;BME280;55809;46.618;10.764;2023-08-21T07:50:17;93753.16;;;30.30;43.46
57248;BME280;55809;46.618;10.764;2023-08-21T07:52:43;93755.72;;;30.34;41.76
57248;BME280;55809;46.618;10.764;2023-08-21T07:55:12;93748.84;;;30.46;42.87
57248;BME280;55809;46.618;10.764;2023-08-21T07:57:41;93753.66;;;30.68;42.37
57248;BME280;55809;46.618;10.764;2023-08-21T08:00:08;93757.69;;;30.90;43.04
57248;BME280;55809;46.618;10.764;2023-08-21T08:02:36;93740.88;;;31.18;41.22
57248;BME280;55809;46.618;10.764;2023-08-21T08:05:02;93738.00;;;31.29;39.45
57248;BME280;55809;46.618;10.764;2023-08-21T08:07:29;93750.47;;;31.34;39.23
57248;BME280;55809;46.618;10.764;2023-08-21T08:09:56;93749.09;;;31.51;38.00
57248;BME280;55809;46.618;10.764;2023-08-21T08:12:24;93742.16;;;31.69;39.55
57248;BME280;55809;46.618;10.764;2023-08-21T08:14:51;93740.53;;;31.91;37.61
57248;BME280;55809;46.618;10.764;2023-08-21T08:17:18;93737.38;;;32.06;36.88
57248;BME280;55809;46.618;10.764;2023-08-21T08:19:45;93735.97;;;31.88;37.72
57248;BME280;55809;46.618;10.764;2023-08-21T08:22:11;93744.88;;;31.81;37.87
57248;BME280;55809;46.618;10.764;2023-08-21T08:24:38;93735.22;;;31.82;38.38
57248;BME280;55809;46.618;10.764;2023-08-21T08:27:05;93734.75;;;31.77;39.46
57248;BME280;55809;46.618;10.764;2023-08-21T08:29:33;93734.84;;;31.66;40.06
57248;BME280;55809;46.618;10.764;2023-08-21T08:32:00;93726.19;;;31.70;38.67
57248;BME280;55809;46.618;10.764;2023-08-21T08:34:27;93732.22;;;31.80;38.79
57248;BME280;55809;46.618;10.764;2023-08-21T08:36:54;93729.84;;;31.95;40.39
57248;BME280;55809;46.618;10.764;2023-08-21T08:39:20;93727.09;;;31.84;39.88
57248;BME280;55809;46.618;10.764;2023-08-21T08:41:48;93715.75;;;31.76;39.06
57248;BME280;55809;46.618;10.764;2023-08-21T08:44:17;93723.56;;;31.89;37.00
57248;BME280;55809;46.618;10.764;2023-08-21T08:46:46;93715.81;;;32.06;38.14
57248;BME280;55809;46.618;10.764;2023-08-21T08:49:14;93713.31;;;31.97;38.59
57248;BME280;55809;46.618;10.764;2023-08-21T08:51:41;93701.44;;;32.21;37.48
57248;BME280;55809;46.618;10.764;2023-08-21T08:54:08;93694.97;;;32.07;38.95
57248;BME280;55809;46.618;10.764;2023-08-21T08:56:35;93697.88;;;31.90;39.25
57248;BME280;55809;46.618;10.764;2023-08-21T08:59:03;93692.94;;;32.08;38.95
57248;BME280;55809;46.618;10.764;2023-08-21T09:01:30;93690.22;;;32.27;40.25
57248;BME280;55809;46.618;10.764;2023-08-21T09:03:58;93687.59;;;32.34;39.60
57248;BME280;55809;46.618;10.764;2023-08-21T09:06:25;93689.13;;;32.65;38.97
57248;BME280;55809;46.618;10.764;2023-08-21T09:08:55;93691.38;;;32.91;38.09
57248;BME280;55809;46.618;10.764;2023-08-21T09:11:22;93686.53;;;32.92;36.66
57248;BME280;55809;46.618;10.764;2023-08-21T09:13:50;93682.56;;;33.06;36.63
57248;BME280;55809;46.618;10.764;2023-08-21T09:16:22;93676.09;;;33.17;35.28
57248;BME280;55809;46.618;10.764;2023-08-21T09:18:51;93680.25;;;33.10;35.55
57248;BME280;55809;46.618;10.764;2023-08-21T09:21:24;93678.91;;;33.17;36.80
57248;BME280;55809;46.618;10.764;2023-08-21T09:23:56;93675.50;;;33.24;35.45
57248;BME280;55809;46.618;10.764;2023-08-21T09:26:25;93669.13;;;33.43;34.28
57248;BME280;55809;46.618;10.764;2023-08-21T09:28:52;93674.53;;;33.41;34.91
57248;BME280;55809;46.618;10.764;2023-08-21T09:31:23;93663.03;;;33.44;35.71
57248;BME280;55809;46.618;10.764;2023-08-21T09:33:56;93661.38;;;33.54;33.88
57248;BME280;55809;46.618;10.764;2023-08-21T09:36:28;93658.09;;;33.12;36.77
57248;BME280;55809;46.618;10.764;2023-08-21T09:38:56;93655.81;;;32.13;36.38
57248;BME280;55809;46.618;10.764;2023-08-21T09:41:23;93656.16;;;31.68;38.56
57248;BME280;55809;46.618;10.764;2023-08-21T09:43:58;93648.19;;;30.89;40.87
57248;BME280;55809;46.618;10.764;2023-08-21T09:46:26;93638.44;;;30.43;41.61
57248;BME280;55809;46.618;10.764;2023-08-21T09:48:54;93646.84;;;29.92;42.56
57248;BME280;55809;46.618;10.764;2023-08-21T09:51:23;93644.53;;;29.57;43.16
57248;BME280;55809;46.618;10.764;2023-08-21T09:53:51;93636.75;;;29.73;43.20
57248;BME280;55809;46.618;10.764;2023-08-21T09:56:21;93631.41;;;30.25;42.51
57248;BME280;55809;46.618;10.764;2023-08-21T09:58:52;93625.19;;;30.77;41.82
57248;BME280;55809;46.618;10.764;2023-08-21T10:01:20;93617.69;;;31.08;37.73
57248;BME280;55809;46.618;10.764;2023-08-21T10:03:51;93622.28;;;31.83;38.07
57248;BME280;55809;46.618;10.764;2023-08-21T10:06:22;93607.47;;;32.23;36.48
57248;BME280;55809;46.618;10.764;2023-08-21T10:08:54;93609.41;;;32.59;36.20
57248;BME280;55809;46.618;10.764;2023-08-21T10:11:24;93604.44;;;32.89;37.00
57248;BME280;55809;46.618;10.764;2023-08-21T10:13:52;93605.63;;;33.00;35.39
57248;BME280;55809;46.618;10.764;2023-08-21T10:16:20;93603.00;;;33.07;34.93
57248;BME280;55809;46.618;10.764;2023-08-21T10:18:51;93596.41;;;33.24;35.45
57248;BME280;55809;46.618;10.764;2023-08-21T10:21:19;93594.72;;;33.34;35.61
57248;BME280;55809;46.618;10.764;2023-08-21T10:23:47;93599.09;;;33.48;34.59
57248;BME280;55809;46.618;10.764;2023-08-21T10:26:21;93593.94;;;33.52;34.95
57248;BME280;55809;46.618;10.764;2023-08-21T10:28:49;93588.88;;;33.70;34.62
57248;BME280;55809;46.618;10.764;2023-08-21T10:31:27;93589.97;;;33.80;34.31
57248;BME280;55809;46.618;10.764;2023-08-21T10:33:56;93591.09;;;33.20;34.74
57248;BME280;55809;46.618;10.764;2023-08-21T10:39:12;93577.47;;;33.30;35.90
57248;BME280;55809;46.618;10.764;2023-08-21T10:41:55;93578.53;;;33.27;34.81
57248;BME280;55809;46.618;10.764;2023-08-21T10:44:36;93572.91;;;33.46;33.53
57248;BME280;55809;46.618;10.764;2023-08-21T10:47:22;93570.22;;;33.40;35.80
57248;BME280;55809;46.618;10.764;2023-08-21T10:49:51;93566.28;;;33.94;34.63
57248;BME280;55809;46.618;10.764;2023-08-21T10:52:23;93559.97;;;34.07;33.01
57248;BME280;55809;46.618;10.764;2023-08-21T10:54:54;93564.16;;;34.00;34.45
57248;BME280;55809;46.618;10.764;2023-08-21T10:57:23;93561.81;;;34.18;35.29
57248;BME280;55809;46.618;10.764;2023-08-21T10:59:55;93566.25;;;34.40;33.55
57248;BME280;55809;46.618;10.764;2023-08-21T11:02:23;93559.16;;;34.52;34.80
57248;BME280;55809;46.618;10.764;2023-08-21T11:04:51;93556.97;;;34.71;34.36
57248;BME280;55809;46.618;10.764;2023-08-21T11:07:19;93556.66;;;34.22;33.44
57248;BME280;55809;46.618;10.764;2023-08-21T11:09:47;93553.75;;;33.82;33.45
57248;BME280;55809;46.618;10.764;2023-08-21T11:12:16;93551.34;;;34.05;36.15
57248;BME280;55809;46.618;10.764;2023-08-21T11:14:45;93544.03;;;34.02;36.53
57248;BME280;55809;46.618;10.764;2023-08-21T11:17:14;93545.66;;;34.37;34.20
57248;BME280;55809;46.618;10.764;2023-08-21T11:19:42;93553.56;;;34.52;34.43
57248;BME280;55809;46.618;10.764;2023-08-21T11:22:11;93544.25;;;34.44;35.02
57248;BME280;55809;46.618;10.764;2023-08-21T11:24:43;93545.22;;;34.46;33.77
57248;BME280;55809;46.618;10.764;2023-08-21T11:27:18;93540.28;;;34.52;34.29
57248;BME280;55809;46.618;10.764;2023-08-21T11:29:52;93535.94;;;34.51;36.03
57248;BME280;55809;46.618;10.764;2023-08-21T11:32:21;93535.31;;;34.45;34.47
57248;BME280;55809;46.618;10.764;2023-08-21T11:34:49;93530.34;;;34.25;37.17
57248;BME280;55809;46.618;10.764;2023-08-21T11:37:18;93537.13;;;33.57;37.09
57248;BME280;55809;46.618;10.764;2023-08-21T11:39:47;93529.47;;;33.07;37.80
57248;BME280;55809;46.618;10.764;2023-08-21T11:42:19;93520.56;;;32.52;39.60
57248;BME280;55809;46.618;10.764;2023-08-21T11:44:49;93516.41;;;32.58;40.08
57248;BME280;55809;46.618;10.764;2023-08-21T11:47:18;93525.41;;;32.89;40.08
57248;BME280;55809;46.618;10.764;2023-08-21T11:49:46;93518.44;;;32.77;39.03
57248;BME280;55809;46.618;10.764;2023-08-21T11:52:21;93514.03;;;32.43;40.18
57248;BME280;55809;46.618;10.764;2023-08-21T11:54:51;93510.63;;;32.32;40.68
57248;BME280;55809;46.618;10.764;2023-08-21T11:57:21;93510.22;;;31.97;40.51
57248;BME280;55809;46.618;10.764;2023-08-21T11:59:54;93507.09;;;31.52;41.07
57248;BME280;55809;46.618;10.764;2023-08-21T12:02:23;93505.63;;;31.10;42.80
57248;BME280;55809;46.618;10.764;2023-08-21T12:04:54;93503.22;;;30.89;43.45
57248;BME280;55809;46.618;10.764;2023-08-21T12:07:27;93497.75;;;30.72;44.76
57248;BME280;55809;46.618;10.764;2023-08-21T12:09:55;93501.84;;;30.60;45.03
57248;BME280;55809;46.618;10.764;2023-08-21T12:12:23;93497.06;;;30.60;43.89
57248;BME280;55809;46.618;10.764;2023-08-21T12:14:58;93493.66;;;30.73;43.71
57248;BME280;55809;46.618;10.764;2023-08-21T12:17:26;93485.38;;;30.62;41.90
57248;BME280;55809;46.618;10.764;2023-08-21T12:19:54;93480.75;;;30.76;44.04
57248;BME280;55809;46.618;10.764;2023-08-21T12:22:25;93478.22;;;30.78;42.29
57248;BME280;55809;46.618;10.764;2023-08-21T12:24:53;93474.31;;;30.92;42.81
57248;BME280;55809;46.618;10.764;2023-08-21T12:27:21;93475.03;;;30.98;41.98
57248;BME280;55809;46.618;10.764;2023-08-21T12:29:49;93472.28;;;30.93;43.74
57248;BME280;55809;46.618;10.764;2023-08-21T12:32:20;93458.72;;;30.72;43.23
57248;BME280;55809;46.618;10.764;2023-08-21T12:34:46;93462.09;;;30.59;42.88
57248;BME280;55809;46.618;10.764;2023-08-21T12:37:17;93463.94;;;30.46;44.30
57248;BME280;55809;46.618;10.764;2023-08-21T12:39:45;93458.13;;;30.44;42.50
57248;BME280;55809;46.618;10.764;2023-08-21T12:42:13;93453.63;;;30.35;43.68
57248;BME280;55809;46.618;10.764;2023-08-21T12:44:41;93447.53;;;30.36;46.32
57248;BME280;55809;46.618;10.764;2023-08-21T12:47:09;93450.31;;;30.36;46.89
57248;BME280;55809;46.618;10.764;2023-08-21T12:49:39;93448.47;;;30.50;45.76
57248;BME280;55809;46.618;10.764;2023-08-21T12:52:05;93447.97;;;30.52;45.45
57248;BME280;55809;46.618;10.764;2023-08-21T12:54:35;93435.25;;;30.56;44.97
57248;BME280;55809;46.618;10.764;2023-08-21T12:57:03;93438.78;;;30.63;45.88
57248;BME280;55809;46.618;10.764;2023-08-21T12:59:34;93436.16;;;30.76;44.99
57248;BME280;55809;46.618;10.764;2023-08-21T13:02:02;93440.22;;;30.80;43.33